KAWM/AWM METAR and TAF weather

Enter ICAO airport designator
Station Type Date Time Source
KAWM METAR 2021/02/27 08:53 UTC NOAA

KAWM 270853Z AUTO 00000KT 5SM -RA BR OVC003 11/11 A2998 RMK AO2 RAB0757 SLP152 P0000 60004 T01060106 51018 $


Station Type Date Time Source
KAWM Decoded METAR 2021/02/27 08:53 UTC NOAA

WEST MEMPHIS MUNICIPAL AIRPORT, AR, United States (KAWM) 35-08N 090-14W
Feb 27, 2021 - 03:53 AM EST / 2021.02.27 0853 UTC
Wind: Calm:0
Visibility: 5 mile(s):0
Sky conditions: overcast
Weather: light rain; mist
Precipitation last hour: A trace
Temperature: 51.1 F (10.6 C)
Dew Point: 51.1 F (10.6 C)
Relative Humidity: 100%
Pressure (altimeter): 29.98 in. Hg (1015 hPa)
Pressure tendency: 0.05 inches (1.8 hPa) higher than three hours ago
ob: KAWM 270853Z AUTO 00000KT 5SM -RA BR OVC003 11/11 A2998 RMK AO2 RAB0757 SLP152 P0000 60004 T01060106 51018
cycle: 9

Station Type Date Time Source
KAWM TAF UTC NOAA

Error!

Example: see airport list